sensor_id;sensor_type;location;lat;lon;timestamp;temperature;humidity
16517;DHT22;8371;52.272;9.746;2023-03-01T00:02:01;-1.80;66.70
16517;DHT22;8371;52.272;9.746;2023-03-01T00:04:27;-1.80;66.60
16517;DHT22;8371;52.272;9.746;2023-03-01T00:06:53;-1.90;66.60
16517;DHT22;8371;52.272;9.746;2023-03-01T00:09:19;-1.90;66.50
16517;DHT22;8371;52.272;9.746;2023-03-01T00:11:45;-1.90;66.60
16517;DHT22;8371;52.272;9.746;2023-03-01T00:14:11;-1.90;66.70
16517;DHT22;8371;52.272;9.746;2023-03-01T00:16:39;-1.90;66.70
16517;DHT22;8371;52.272;9.746;2023-03-01T00:19:07;-2.00;66.70
16517;DHT22;8371;52.272;9.746;2023-03-01T00:21:34;-2.00;66.70
16517;DHT22;8371;52.272;9.746;2023-03-01T00:24:01;-2.00;66.60
16517;DHT22;8371;52.272;9.746;2023-03-01T00:26:27;-2.00;66.70
16517;DHT22;8371;52.272;9.746;2023-03-01T00:28:54;-2.10;66.60
16517;DHT22;8371;52.272;9.746;2023-03-01T00:31:27;-2.10;66.60
16517;DHT22;8371;52.272;9.746;2023-03-01T00:34:00;-2.10;66.60
16517;DHT22;8371;52.272;9.746;2023-03-01T00:36:30;-2.20;66.70
16517;DHT22;8371;52.272;9.746;2023-03-01T00:38:56;-2.20;66.70
16517;DHT22;8371;52.272;9.746;2023-03-01T00:41:23;-2.20;66.70
16517;DHT22;8371;52.272;9.746;2023-03-01T00:43:49;-2.30;66.70
16517;DHT22;8371;52.272;9.746;2023-03-01T00:46:18;-2.30;67.40
16517;DHT22;8371;52.272;9.746;2023-03-01T00:48:44;-2.30;66.80
16517;DHT22;8371;52.272;9.746;2023-03-01T00:51:13;-2.30;66.80
16517;DHT22;8371;52.272;9.746;2023-03-01T00:53:39;-2.40;66.90
16517;DHT22;8371;52.272;9.746;2023-03-01T00:56:07;-2.40;66.90
16517;DHT22;8371;52.272;9.746;2023-03-01T00:58:34;-2.40;66.90
16517;DHT22;8371;52.272;9.746;2023-03-01T01:01:00;-2.40;66.90
16517;DHT22;8371;52.272;9.746;2023-03-01T01:03:26;-2.40;66.90
16517;DHT22;8371;52.272;9.746;2023-03-01T01:05:52;-2.50;67.00
16517;DHT22;8371;52.272;9.746;2023-03-01T01:08:19;-2.40;67.00
16517;DHT22;8371;52.272;9.746;2023-03-01T01:10:45;-2.40;67.00
16517;DHT22;8371;52.272;9.746;2023-03-01T01:13:12;-2.50;66.90
16517;DHT22;8371;52.272;9.746;2023-03-01T01:15:39;-2.50;67.00
16517;DHT22;8371;52.272;9.746;2023-03-01T01:18:05;-2.50;67.50
16517;DHT22;8371;52.272;9.746;2023-03-01T01:20:31;-2.50;67.00
16517;DHT22;8371;52.272;9.746;2023-03-01T01:22:57;-2.50;67.00
16517;DHT22;8371;52.272;9.746;2023-03-01T01:25:22;-2.50;67.00
16517;DHT22;8371;52.272;9.746;2023-03-01T01:27:50;-2.60;67.00
16517;DHT22;8371;52.272;9.746;2023-03-01T01:30:17;-2.60;67.10
16517;DHT22;8371;52.272;9.746;2023-03-01T01:32:42;-2.60;67.10
16517;DHT22;8371;52.272;9.746;2023-03-01T01:35:08;-2.60;67.20
16517;DHT22;8371;52.272;9.746;2023-03-01T01:37:34;-2.60;67.10
16517;DHT22;8371;52.272;9.746;2023-03-01T01:40:00;-2.60;67.20
16517;DHT22;8371;52.272;9.746;2023-03-01T01:42:28;-2.70;67.10
16517;DHT22;8371;52.272;9.746;2023-03-01T01:45:55;-2.60;67.20
16517;DHT22;8371;52.272;9.746;2023-03-01T01:47:43;-2.60;67.30
16517;DHT22;8371;52.272;9.746;2023-03-01T01:50:10;-2.70;67.20
16517;DHT22;8371;52.272;9.746;2023-03-01T01:52:38;-2.70;67.20
16517;DHT22;8371;52.272;9.746;2023-03-01T01:55:09;-2.70;67.20
16517;DHT22;8371;52.272;9.746;2023-03-01T01:57:45;-2.70;67.20
16517;DHT22;8371;52.272;9.746;2023-03-01T02:00:12;-2.70;67.20
16517;DHT22;8371;52.272;9.746;2023-03-01T02:02:38;-2.80;67.20
16517;DHT22;8371;52.272;9.746;2023-03-01T02:05:24;-2.80;67.20
16517;DHT22;8371;52.272;9.746;2023-03-01T02:07:48;-2.80;67.20
16517;DHT22;8371;52.272;9.746;2023-03-01T02:10:15;-2.80;67.30
16517;DHT22;8371;52.272;9.746;2023-03-01T02:12:41;-2.80;67.40
16517;DHT22;8371;52.272;9.746;2023-03-01T02:15:08;-2.80;67.40
16517;DHT22;8371;52.272;9.746;2023-03-01T02:17:34;-2.90;67.40
16517;DHT22;8371;52.272;9.746;2023-03-01T02:20:15;-2.90;67.30
16517;DHT22;8371;52.272;9.746;2023-03-01T02:22:39;-2.90;67.30
16517;DHT22;8371;52.272;9.746;2023-03-01T02:30:24;-2.90;67.40
16517;DHT22;8371;52.272;9.746;2023-03-01T02:32:52;-2.90;67.50
16517;DHT22;8371;52.272;9.746;2023-03-01T02:35:19;-2.90;67.40
16517;DHT22;8371;52.272;9.746;2023-03-01T02:37:46;-2.90;67.40
16517;DHT22;8371;52.272;9.746;2023-03-01T02:40:16;-3.00;67.40
16517;DHT22;8371;52.272;9.746;2023-03-01T02:42:51;-3.00;67.60
16517;DHT22;8371;52.272;9.746;2023-03-01T02:45:18;-3.00;67.50
16517;DHT22;8371;52.272;9.746;2023-03-01T02:47:44;-3.00;68.10
16517;DHT22;8371;52.272;9.746;2023-03-01T02:53:27;-3.00;67.60
16517;DHT22;8371;52.272;9.746;2023-03-01T02:55:35;-3.00;67.60
16517;DHT22;8371;52.272;9.746;2023-03-01T02:58:02;-3.10;67.40
16517;DHT22;8371;52.272;9.746;2023-03-01T03:00:32;-3.10;67.40
16517;DHT22;8371;52.272;9.746;2023-03-01T03:02:58;-3.10;67.50
16517;DHT22;8371;52.272;9.746;2023-03-01T03:05:26;-3.10;67.50
16517;DHT22;8371;52.272;9.746;2023-03-01T03:07:53;-3.10;67.60
16517;DHT22;8371;52.272;9.746;2023-03-01T03:10:22;-3.20;67.60
16517;DHT22;8371;52.272;9.746;2023-03-01T03:12:52;-3.20;67.70
16517;DHT22;8371;52.272;9.746;2023-03-01T03:15:18;-3.20;67.80
16517;DHT22;8371;52.272;9.746;2023-03-01T03:17:44;-3.20;67.70
16517;DHT22;8371;52.272;9.746;2023-03-01T03:20:12;-3.20;67.80
16517;DHT22;8371;52.272;9.746;2023-03-01T03:22:41;-3.20;67.70
16517;DHT22;8371;52.272;9.746;2023-03-01T03:25:07;-3.20;68.60
16517;DHT22;8371;52.272;9.746;2023-03-01T03:27:37;-3.20;67.80
16517;DHT22;8371;52.272;9.746;2023-03-01T03:30:05;-3.20;67.80
16517;DHT22;8371;52.272;9.746;2023-03-01T03:32:36;-3.20;67.90
16517;DHT22;8371;52.272;9.746;2023-03-01T03:35:03;-3.20;67.80
16517;DHT22;8371;52.272;9.746;2023-03-01T03:37:31;-3.20;67.90
16517;DHT22;8371;52.272;9.746;2023-03-01T03:40:15;-3.30;67.80
16517;DHT22;8371;52.272;9.746;2023-03-01T03:42:41;-3.30;67.80
16517;DHT22;8371;52.272;9.746;2023-03-01T03:45:07;-3.30;68.60
16517;DHT22;8371;52.272;9.746;2023-03-01T03:47:33;-3.30;67.90
16517;DHT22;8371;52.272;9.746;2023-03-01T03:49:58;-3.30;67.90
16517;DHT22;8371;52.272;9.746;2023-03-01T03:52:24;-3.30;68.00
16517;DHT22;8371;52.272;9.746;2023-03-01T03:54:50;-3.30;68.00
16517;DHT22;8371;52.272;9.746;2023-03-01T03:57:15;-3.30;68.10
16517;DHT22;8371;52.272;9.746;2023-03-01T03:59:41;-3.30;68.10
16517;DHT22;8371;52.272;9.746;2023-03-01T04:02:07;-3.30;68.20
16517;DHT22;8371;52.272;9.746;2023-03-01T04:04:34;-3.30;68.10
16517;DHT22;8371;52.272;9.746;2023-03-01T04:06:59;-3.30;68.10
16517;DHT22;8371;52.272;9.746;2023-03-01T04:09:25;-3.30;68.10
16517;DHT22;8371;52.272;9.746;2023-03-01T04:11:51;-3.30;68.30
16517;DHT22;8371;52.272;9.746;2023-03-01T04:14:16;-3.30;68.20
16517;DHT22;8371;52.272;9.746;2023-03-01T04:16:42;-3.30;68.20
16517;DHT22;8371;52.272;9.746;2023-03-01T04:19:08;-3.40;68.40
16517;DHT22;8371;52.272;9.746;2023-03-01T04:21:34;-3.30;68.20
16517;DHT22;8371;52.272;9.746;2023-03-01T04:24:01;-3.40;68.10
16517;DHT22;8371;52.272;9.746;2023-03-01T04:26:29;-3.40;68.10
16517;DHT22;8371;52.272;9.746;2023-03-01T04:28:54;-3.40;68.20
16517;DHT22;8371;52.272;9.746;2023-03-01T04:31:20;-3.40;68.20
16517;DHT22;8371;52.272;9.746;2023-03-01T04:33:48;-3.40;68.20
16517;DHT22;8371;52.272;9.746;2023-03-01T04:36:16;-3.40;68.20
16517;DHT22;8371;52.272;9.746;2023-03-01T04:38:42;-3.40;68.20
16517;DHT22;8371;52.272;9.746;2023-03-01T04:41:10;-3.40;68.20
16517;DHT22;8371;52.272;9.746;2023-03-01T04:43:36;-3.40;68.10
16517;DHT22;8371;52.272;9.746;2023-03-01T04:46:05;-3.40;68.10
16517;DHT22;8371;52.272;9.746;2023-03-01T04:48:32;-3.50;68.90
16517;DHT22;8371;52.272;9.746;2023-03-01T04:50:59;-3.50;68.20
16517;DHT22;8371;52.272;9.746;2023-03-01T04:53:24;-3.50;68.30
16517;DHT22;8371;52.272;9.746;2023-03-01T04:55:50;-3.50;68.20
16517;DHT22;8371;52.272;9.746;2023-03-01T04:58:16;-3.60;68.20
16517;DHT22;8371;52.272;9.746;2023-03-01T05:00:42;-3.50;68.20
16517;DHT22;8371;52.272;9.746;2023-03-01T05:03:08;-3.60;68.20
16517;DHT22;8371;52.272;9.746;2023-03-01T05:05:36;-3.60;68.10
16517;DHT22;8371;52.272;9.746;2023-03-01T05:08:05;-3.60;68.10
16517;DHT22;8371;52.272;9.746;2023-03-01T05:10:33;-3.70;68.10
16517;DHT22;8371;52.272;9.746;2023-03-01T05:13:01;-3.70;68.10
16517;DHT22;8371;52.272;9.746;2023-03-01T05:15:29;-3.70;68.10
16517;DHT22;8371;52.272;9.746;2023-03-01T05:17:57;-3.70;68.20
16517;DHT22;8371;52.272;9.746;2023-03-01T05:20:30;-3.80;68.10
16517;DHT22;8371;52.272;9.746;2023-03-01T05:22:58;-3.80;68.00
16517;DHT22;8371;52.272;9.746;2023-03-01T05:25:24;-3.80;68.00
16517;DHT22;8371;52.272;9.746;2023-03-01T05:27:50;-3.80;68.00
16517;DHT22;8371;52.272;9.746;2023-03-01T05:30:17;-3.80;68.90
16517;DHT22;8371;52.272;9.746;2023-03-01T05:32:48;-3.80;68.30
16517;DHT22;8371;52.272;9.746;2023-03-01T05:35:16;-3.80;68.30
16517;DHT22;8371;52.272;9.746;2023-03-01T05:37:45;-3.90;68.20
16517;DHT22;8371;52.272;9.746;2023-03-01T05:40:13;-3.90;68.30
16517;DHT22;8371;52.272;9.746;2023-03-01T05:42:48;-3.90;68.20
16517;DHT22;8371;52.272;9.746;2023-03-01T05:45:12;-3.90;68.30
16517;DHT22;8371;52.272;9.746;2023-03-01T05:47:41;-3.90;68.30
16517;DHT22;8371;52.272;9.746;2023-03-01T05:50:12;-3.90;68.30
16517;DHT22;8371;52.272;9.746;2023-03-01T05:52:38;-3.90;68.30
16517;DHT22;8371;52.272;9.746;2023-03-01T05:55:04;-3.90;68.40
16517;DHT22;8371;52.272;9.746;2023-03-01T05:57:30;-4.00;68.30
16517;DHT22;8371;52.272;9.746;2023-03-01T05:59:56;-4.00;68.30
16517;DHT22;8371;52.272;9.746;2023-03-01T06:02:22;-3.90;68.30
16517;DHT22;8371;52.272;9.746;2023-03-01T06:04:47;-4.00;68.30
16517;DHT22;8371;52.272;9.746;2023-03-01T06:07:13;-4.00;68.30
16517;DHT22;8371;52.272;9.746;2023-03-01T06:09:39;-4.00;68.30
16517;DHT22;8371;52.272;9.746;2023-03-01T06:12:05;-4.00;68.40
16517;DHT22;8371;52.272;9.746;2023-03-01T06:14:30;-4.00;68.40
16517;DHT22;8371;52.272;9.746;2023-03-01T06:16:57;-4.00;68.40
16517;DHT22;8371;52.272;9.746;2023-03-01T06:19:23;-4.00;68.40
16517;DHT22;8371;52.272;9.746;2023-03-01T06:21:49;-4.00;68.40
16517;DHT22;8371;52.272;9.746;2023-03-01T06:24:15;-4.00;68.50
16517;DHT22;8371;52.272;9.746;2023-03-01T06:26:40;-4.00;68.50
16517;DHT22;8371;52.272;9.746;2023-03-01T06:29:07;-4.00;68.50
16517;DHT22;8371;52.272;9.746;2023-03-01T06:31:34;-3.90;68.60
16517;DHT22;8371;52.272;9.746;2023-03-01T06:33:59;-3.90;68.70
16517;DHT22;8371;52.272;9.746;2023-03-01T06:36:25;-3.90;68.70
16517;DHT22;8371;52.272;9.746;2023-03-01T06:38:51;-3.90;68.80
16517;DHT22;8371;52.272;9.746;2023-03-01T06:41:16;-3.90;68.80
16517;DHT22;8371;52.272;9.746;2023-03-01T06:43:42;-3.90;68.80
16517;DHT22;8371;52.272;9.746;2023-03-01T06:46:08;-3.80;69.20
16517;DHT22;8371;52.272;9.746;2023-03-01T06:48:34;-3.80;68.90
16517;DHT22;8371;52.272;9.746;2023-03-01T06:51:00;-3.70;69.10
16517;DHT22;8371;52.272;9.746;2023-03-01T06:53:27;-3.70;69.10
16517;DHT22;8371;52.272;9.746;2023-03-01T06:55:56;-3.70;69.30
16517;DHT22;8371;52.272;9.746;2023-03-01T06:58:23;-3.60;70.00
16517;DHT22;8371;52.272;9.746;2023-03-01T07:00:48;-3.50;69.30
16517;DHT22;8371;52.272;9.746;2023-03-01T07:03:14;-3.50;69.30
16517;DHT22;8371;52.272;9.746;2023-03-01T07:05:40;-3.40;69.40
16517;DHT22;8371;52.272;9.746;2023-03-01T07:08:06;-3.40;69.50
16517;DHT22;8371;52.272;9.746;2023-03-01T07:10:31;-3.30;69.50
16517;DHT22;8371;52.272;9.746;2023-03-01T07:12:58;-3.30;69.50
16517;DHT22;8371;52.272;9.746;2023-03-01T07:15:24;-3.20;69.60
16517;DHT22;8371;52.272;9.746;2023-03-01T07:17:51;-3.10;69.90
16517;DHT22;8371;52.272;9.746;2023-03-01T07:20:18;-3.00;69.90
16517;DHT22;8371;52.272;9.746;2023-03-01T07:22:44;-3.00;70.00
16517;DHT22;8371;52.272;9.746;2023-03-01T07:25:10;-2.80;70.30
16517;DHT22;8371;52.272;9.746;2023-03-01T07:27:36;-2.70;70.60
16517;DHT22;8371;52.272;9.746;2023-03-01T07:30:02;-2.60;70.50
16517;DHT22;8371;52.272;9.746;2023-03-01T07:32:28;-2.50;70.80
16517;DHT22;8371;52.272;9.746;2023-03-01T07:34:54;-2.40;70.80
16517;DHT22;8371;52.272;9.746;2023-03-01T07:37:19;-2.30;71.00
16517;DHT22;8371;52.272;9.746;2023-03-01T07:39:45;-2.10;71.10
16517;DHT22;8371;52.272;9.746;2023-03-01T07:42:11;-2.00;71.10
16517;DHT22;8371;52.272;9.746;2023-03-01T07:44:36;-1.80;71.30
16517;DHT22;8371;52.272;9.746;2023-03-01T07:47:03;-1.70;71.30
16517;DHT22;8371;52.272;9.746;2023-03-01T07:49:29;-1.60;71.30
16517;DHT22;8371;52.272;9.746;2023-03-01T07:51:55;-1.40;72.10
16517;DHT22;8371;52.272;9.746;2023-03-01T07:54:21;-1.30;71.40
16517;DHT22;8371;52.272;9.746;2023-03-01T07:56:47;-1.20;71.40
16517;DHT22;8371;52.272;9.746;2023-03-01T07:59:13;-1.10;71.30
16517;DHT22;8371;52.272;9.746;2023-03-01T08:01:39;-1.00;71.30
16517;DHT22;8371;52.272;9.746;2023-03-01T08:04:04;-0.90;71.40
16517;DHT22;8371;52.272;9.746;2023-03-01T08:06:34;-0.80;71.40
16517;DHT22;8371;52.272;9.746;2023-03-01T08:09:01;-0.70;71.60
16517;DHT22;8371;52.272;9.746;2023-03-01T08:11:27;-0.60;71.50
16517;DHT22;8371;52.272;9.746;2023-03-01T08:13:54;-0.50;71.60
16517;DHT22;8371;52.272;9.746;2023-03-01T08:16:20;-0.40;71.60
16517;DHT22;8371;52.272;9.746;2023-03-01T08:18:46;-0.30;71.60
16517;DHT22;8371;52.272;9.746;2023-03-01T08:21:14;-0.20;71.60
16517;DHT22;8371;52.272;9.746;2023-03-01T08:23:41;-0.20;71.60
16517;DHT22;8371;52.272;9.746;2023-03-01T08:26:16;-0.10;71.80
16517;DHT22;8371;52.272;9.746;2023-03-01T08:28:39;0.10;71.90
16517;DHT22;8371;52.272;9.746;2023-03-01T08:31:21;0.10;72.00
16517;DHT22;8371;52.272;9.746;2023-03-01T08:33:48;0.30;71.90
16517;DHT22;8371;52.272;9.746;2023-03-01T08:36:17;0.40;72.00
16517;DHT22;8371;52.272;9.746;2023-03-01T08:38:42;0.40;72.30
16517;DHT22;8371;52.272;9.746;2023-03-01T08:41:09;0.50;72.90
16517;DHT22;8371;52.272;9.746;2023-03-01T08:43:34;0.60;72.90
16517;DHT22;8371;52.272;9.746;2023-03-01T08:46:00;0.70;72.80
16517;DHT22;8371;52.272;9.746;2023-03-01T08:48:27;0.80;72.60
16517;DHT22;8371;52.272;9.746;2023-03-01T08:50:53;0.90;72.40
16517;DHT22;8371;52.272;9.746;2023-03-01T08:53:19;1.00;72.30
16517;DHT22;8371;52.272;9.746;2023-03-01T08:55:45;1.10;72.30
16517;DHT22;8371;52.272;9.746;2023-03-01T08:58:11;1.20;72.50
16517;DHT22;8371;52.272;9.746;2023-03-01T09:00:37;1.30;72.80
16517;DHT22;8371;52.272;9.746;2023-03-01T09:03:02;1.40;72.50
16517;DHT22;8371;52.272;9.746;2023-03-01T09:05:33;1.50;72.40
16517;DHT22;8371;52.272;9.746;2023-03-01T09:07:59;1.60;72.50
16517;DHT22;8371;52.272;9.746;2023-03-01T09:10:25;1.70;72.20
16517;DHT22;8371;52.272;9.746;2023-03-01T09:12:51;1.80;72.20
16517;DHT22;8371;52.272;9.746;2023-03-01T09:15:17;1.90;72.20
16517;DHT22;8371;52.272;9.746;2023-03-01T09:17:42;2.00;73.20
16517;DHT22;8371;52.272;9.746;2023-03-01T09:20:10;2.00;73.00
16517;DHT22;8371;52.272;9.746;2023-03-01T09:22:36;2.10;72.60
16517;DHT22;8371;52.272;9.746;2023-03-01T09:25:01;2.30;72.70
16517;DHT22;8371;52.272;9.746;2023-03-01T09:27:27;2.40;72.30
16517;DHT22;8371;52.272;9.746;2023-03-01T09:29:53;2.50;72.20
16517;DHT22;8371;52.272;9.746;2023-03-01T09:32:18;2.60;72.30
16517;DHT22;8371;52.272;9.746;2023-03-01T09:34:44;2.70;72.00
16517;DHT22;8371;52.272;9.746;2023-03-01T09:37:29;2.80;72.20
16517;DHT22;8371;52.272;9.746;2023-03-01T09:39:55;2.80;71.90
16517;DHT22;8371;52.272;9.746;2023-03-01T09:42:21;3.10;71.70
16517;DHT22;8371;52.272;9.746;2023-03-01T09:44:56;3.20;71.70
16517;DHT22;8371;52.272;9.746;2023-03-01T09:47:29;3.40;71.80
16517;DHT22;8371;52.272;9.746;2023-03-01T09:50:15;3.60;71.50
16517;DHT22;8371;52.272;9.746;2023-03-01T09:55:26;3.90;71.40
16517;DHT22;8371;52.272;9.746;2023-03-01T09:57:55;4.10;71.40
16517;DHT22;8371;52.272;9.746;2023-03-01T10:00:42;4.40;71.30
16517;DHT22;8371;52.272;9.746;2023-03-01T10:05:59;4.80;70.70
16517;DHT22;8371;52.272;9.746;2023-03-01T10:08:54;5.10;69.90
16517;DHT22;8371;52.272;9.746;2023-03-01T10:11:23;5.30;69.80
16517;DHT22;8371;52.272;9.746;2023-03-01T10:14:23;5.60;70.00
16517;DHT22;8371;52.272;9.746;2023-03-01T10:16:58;5.80;69.70
16517;DHT22;8371;52.272;9.746;2023-03-01T10:19:42;6.00;69.30
16517;DHT22;8371;52.272;9.746;2023-03-01T10:22:19;6.20;69.20
16517;DHT22;8371;52.272;9.746;2023-03-01T10:24:50;6.40;69.10
16517;DHT22;8371;52.272;9.746;2023-03-01T10:27:25;6.60;67.30
16517;DHT22;8371;52.272;9.746;2023-03-01T10:30:11;6.80;68.20
16517;DHT22;8371;52.272;9.746;2023-03-01T10:32:37;7.00;68.40
16517;DHT22;8371;52.272;9.746;2023-03-01T10:35:18;7.30;65.80
16517;DHT22;8371;52.272;9.746;2023-03-01T10:38:08;7.40;65.50
16517;DHT22;8371;52.272;9.746;2023-03-01T10:40:35;7.60;65.20
16517;DHT22;8371;52.272;9.746;2023-03-01T10:43:05;7.80;64.70
16517;DHT22;8371;52.272;9.746;2023-03-01T10:45:34;7.90;64.00
16517;DHT22;8371;52.272;9.746;2023-03-01T10:48:13;8.00;65.20
16517;DHT22;8371;52.272;9.746;2023-03-01T10:50:38;8.20;65.30
16517;DHT22;8371;52.272;9.746;2023-03-01T10:53:07;8.30;65.10
16517;DHT22;8371;52.272;9.746;2023-03-01T10:55:38;8.50;65.40
16517;DHT22;8371;52.272;9.746;2023-03-01T10:58:21;8.60;65.60
16517;DHT22;8371;52.272;9.746;2023-03-01T11:00:55;8.80;65.50
16517;DHT22;8371;52.272;9.746;2023-03-01T11:03:31;8.90;65.40
16517;DHT22;8371;52.272;9.746;2023-03-01T11:08:48;9.20;63.70
16517;DHT22;8371;52.272;9.746;2023-03-01T11:11:29;9.30;62.30
16517;DHT22;8371;52.272;9.746;2023-03-01T11:14:03;9.30;58.00
16517;DHT22;8371;52.272;9.746;2023-03-01T11:16:37;9.40;61.30
16517;DHT22;8371;52.272;9.746;2023-03-01T11:22:03;9.60;61.10
16517;DHT22;8371;52.272;9.746;2023-03-01T11:24:36;9.70;62.00
16517;DHT22;8371;52.272;9.746;2023-03-01T11:27:04;9.80;62.30
16517;DHT22;8371;52.272;9.746;2023-03-01T11:29:36;9.90;61.90
16517;DHT22;8371;52.272;9.746;2023-03-01T11:32:06;10.00;61.10
16517;DHT22;8371;52.272;9.746;2023-03-01T11:34:47;10.10;60.90
16517;DHT22;8371;52.272;9.746;2023-03-01T11:40:10;10.20;59.30
16517;DHT22;8371;52.272;9.746;2023-03-01T11:43:00;10.30;59.60
16517;DHT22;8371;52.272;9.746;2023-03-01T11:45:26;10.40;58.60
16517;DHT22;8371;52.272;9.746;2023-03-01T11:48:07;10.40;58.10
16517;DHT22;8371;52.272;9.746;2023-03-01T11:50:39;10.50;58.80
16517;DHT22;8371;52.272;9.746;2023-03-01T11:58:49;10.60;59.20
16517;DHT22;8371;52.272;9.746;2023-03-01T12:07:09;10.80;59.50
16517;DHT22;8371;52.272;9.746;2023-03-01T12:12:40;10.90;57.90
16517;DHT22;8371;52.272;9.746;2023-03-01T12:20:54;11.10;57.80
16517;DHT22;8371;52.272;9.746;2023-03-01T12:26:16;11.00;58.00
16517;DHT22;8371;52.272;9.746;2023-03-01T12:28:50;11.00;55.10
16517;DHT22;8371;52.272;9.746;2023-03-01T12:31:40;11.00;54.80
16517;DHT22;8371;52.272;9.746;2023-03-01T12:34:40;10.90;54.80
16517;DHT22;8371;52.272;9.746;2023-03-01T12:37:33;10.90;56.40
16517;DHT22;8371;52.272;9.746;2023-03-01T12:40:03;10.90;57.00
16517;DHT22;8371;52.272;9.746;2023-03-01T12:48:29;10.90;57.20
16517;DHT22;8371;52.272;9.746;2023-03-01T12:50:55;10.90;54.80
16517;DHT22;8371;52.272;9.746;2023-03-01T12:53:36;10.90;56.50
16517;DHT22;8371;52.272;9.746;2023-03-01T12:56:09;10.90;57.00
16517;DHT22;8371;52.272;9.746;2023-03-01T12:58:41;10.90;56.30
16517;DHT22;8371;52.272;9.746;2023-03-01T13:09:56;10.90;56.80
16517;DHT22;8371;52.272;9.746;2023-03-01T13:15:25;11.00;56.70
16517;DHT22;8371;52.272;9.746;2023-03-01T13:17:57;11.00;54.90
16517;DHT22;8371;52.272;9.746;2023-03-01T13:23:04;10.90;55.80
16517;DHT22;8371;52.272;9.746;2023-03-01T13:25:31;10.90;54.40
16517;DHT22;8371;52.272;9.746;2023-03-01T13:30:47;10.70;54.60
16517;DHT22;8371;52.272;9.746;2023-03-01T13:35:56;10.60;54.80
16517;DHT22;8371;52.272;9.746;2023-03-01T13:38:48;10.60;55.30
16517;DHT22;8371;52.272;9.746;2023-03-01T13:41:17;10.50;55.20
16517;DHT22;8371;52.272;9.746;2023-03-01T13:43:45;10.50;55.70
16517;DHT22;8371;52.272;9.746;2023-03-01T13:46:18;10.40;55.60
16517;DHT22;8371;52.272;9.746;2023-03-01T13:48:47;10.40;55.90
16517;DHT22;8371;52.272;9.746;2023-03-01T13:51:14;10.30;55.00
16517;DHT22;8371;52.272;9.746;2023-03-01T13:53:46;10.30;53.60
16517;DHT22;8371;52.272;9.746;2023-03-01T13:56:12;10.20;54.90
16517;DHT22;8371;52.272;9.746;2023-03-01T13:58:58;10.20;55.30
16517;DHT22;8371;52.272;9.746;2023-03-01T14:01:30;10.20;55.80
16517;DHT22;8371;52.272;9.746;2023-03-01T14:03:57;10.10;55.90
16517;DHT22;8371;52.272;9.746;2023-03-01T14:06:25;10.10;54.30
16517;DHT22;8371;52.272;9.746;2023-03-01T14:14:31;10.10;55.80
16517;DHT22;8371;52.272;9.746;2023-03-01T14:19:28;10.00;53.60
16517;DHT22;8371;52.272;9.746;2023-03-01T14:22:17;10.00;54.90
16517;DHT22;8371;52.272;9.746;2023-03-01T14:24:56;10.10;55.30
16517;DHT22;8371;52.272;9.746;2023-03-01T14:27:30;10.10;55.30
16517;DHT22;8371;52.272;9.746;2023-03-01T14:30:01;10.10;55.40
16517;DHT22;8371;52.272;9.746;2023-03-01T14:32:29;10.10;55.50
16517;DHT22;8371;52.272;9.746;2023-03-01T14:34:57;10.10;53.20
16517;DHT22;8371;52.272;9.746;2023-03-01T14:37:35;10.20;52.00
16517;DHT22;8371;52.272;9.746;2023-03-01T14:40:03;10.20;54.40
16517;DHT22;8371;52.272;9.746;2023-03-01T14:42:34;10.30;54.80
16517;DHT22;8371;52.272;9.746;2023-03-01T14:45:01;10.30;54.10
16517;DHT22;8371;52.272;9.746;2023-03-01T14:47:32;10.30;54.90
16517;DHT22;8371;52.272;9.746;2023-03-01T14:50:01;10.30;54.60
16517;DHT22;8371;52.272;9.746;2023-03-01T14:52:39;10.40;54.50
16517;DHT22;8371;52.272;9.746;2023-03-01T14:55:20;10.40;54.70
16517;DHT22;8371;52.272;9.746;2023-03-01T14:57:48;10.40;55.00
16517;DHT22;8371;52.272;9.746;2023-03-01T15:00:29;10.50;55.00
16517;DHT22;8371;52.272;9.746;2023-03-01T15:02:48;10.50;54.90
16517;DHT22;8371;52.272;9.746;2023-03-01T15:05:16;10.50;55.00
16517;DHT22;8371;52.272;9.746;2023-03-01T15:07:43;10.50;53.70
16517;DHT22;8371;52.272;9.746;2023-03-01T15:10:29;10.50;54.70
16517;DHT22;8371;52.272;9.746;2023-03-01T15:12:56;10.60;54.80
16517;DHT22;8371;52.272;9.746;2023-03-01T15:15:31;10.60;54.10
16517;DHT22;8371;52.272;9.746;2023-03-01T15:17:58;10.60;54.60
16517;DHT22;8371;52.272;9.746;2023-03-01T15:20:26;10.60;54.80
16517;DHT22;8371;52.272;9.746;2023-03-01T15:22:53;10.60;54.40
16517;DHT22;8371;52.272;9.746;2023-03-01T15:25:23;10.60;54.40
16517;DHT22;8371;52.272;9.746;2023-03-01T15:27:51;10.70;54.90
16517;DHT22;8371;52.272;9.746;2023-03-01T15:30:30;10.70;54.70
16517;DHT22;8371;52.272;9.746;2023-03-01T15:33:28;10.70;54.50
16517;DHT22;8371;52.272;9.746;2023-03-01T15:35:59;10.60;54.30
16517;DHT22;8371;52.272;9.746;2023-03-01T15:38:49;10.70;53.80
16517;DHT22;8371;52.272;9.746;2023-03-01T15:43:50;10.60;53.90
16517;DHT22;8371;52.272;9.746;2023-03-01T15:46:27;10.60;54.00
16517;DHT22;8371;52.272;9.746;2023-03-01T15:48:56;10.60;53.90
16517;DHT22;8371;52.272;9.746;2023-03-01T15:51:36;10.50;54.00
16517;DHT22;8371;52.272;9.746;2023-03-01T15:54:06;10.50;54.00
16517;DHT22;8371;52.272;9.746;2023-03-01T15:56:33;10.50;53.70
16517;DHT22;8371;52.272;9.746;2023-03-01T15:59:00;10.50;53.80
16517;DHT22;8371;52.272;9.746;2023-03-01T16:01:26;10.50;53.20
16517;DHT22;8371;52.272;9.746;2023-03-01T16:03:52;10.40;54.00
16517;DHT22;8371;52.272;9.746;2023-03-01T16:06:19;10.40;53.80
16517;DHT22;8371;52.272;9.746;2023-03-01T16:08:44;10.30;53.80
16517;DHT22;8371;52.272;9.746;2023-03-01T16:11:14;10.20;53.70
16517;DHT22;8371;52.272;9.746;2023-03-01T16:13:40;10.20;53.90
16517;DHT22;8371;52.272;9.746;2023-03-01T16:16:06;10.10;53.80
16517;DHT22;8371;52.272;9.746;2023-03-01T16:18:32;10.00;53.90
16517;DHT22;8371;52.272;9.746;2023-03-01T16:20:58;9.90;53.80
16517;DHT22;8371;52.272;9.746;2023-03-01T16:23:24;9.80;53.60
16517;DHT22;8371;52.272;9.746;2023-03-01T16:25:50;9.70;53.60
16517;DHT22;8371;52.272;9.746;2023-03-01T16:28:16;9.60;53.80
16517;DHT22;8371;52.272;9.746;2023-03-01T16:30:46;9.50;53.90
16517;DHT22;8371;52.272;9.746;2023-03-01T16:33:16;9.40;54.10
16517;DHT22;8371;52.272;9.746;2023-03-01T16:35:41;9.20;54.10
16517;DHT22;8371;52.272;9.746;2023-03-01T16:38:08;9.10;53.90
16517;DHT22;8371;52.272;9.746;2023-03-01T16:40:34;9.00;54.10
16517;DHT22;8371;52.272;9.746;2023-03-01T16:43:00;8.90;53.90
16517;DHT22;8371;52.272;9.746;2023-03-01T16:45:28;8.80;54.10
16517;DHT22;8371;52.272;9.746;2023-03-01T16:47:54;8.60;54.10
16517;DHT22;8371;52.272;9.746;2023-03-01T16:50:20;8.50;54.30
16517;DHT22;8371;52.272;9.746;2023-03-01T16:52:45;8.40;54.10
16517;DHT22;8371;52.272;9.746;2023-03-01T16:55:11;8.30;54.10
16517;DHT22;8371;52.272;9.746;2023-03-01T16:57:37;8.20;54.20
16517;DHT22;8371;52.272;9.746;2023-03-01T17:00:05;8.10;54.30
16517;DHT22;8371;52.272;9.746;2023-03-01T17:02:34;7.90;54.10
16517;DHT22;8371;52.272;9.746;2023-03-01T17:04:59;7.80;54.20
16517;DHT22;8371;52.272;9.746;2023-03-01T17:07:25;7.70;54.30
16517;DHT22;8371;52.272;9.746;2023-03-01T17:09:51;7.60;54.30
16517;DHT22;8371;52.272;9.746;2023-03-01T17:12:16;7.50;54.50
16517;DHT22;8371;52.272;9.746;2023-03-01T17:14:42;7.30;54.40
16517;DHT22;8371;52.272;9.746;2023-03-01T17:17:09;7.20;54.50
16517;DHT22;8371;52.272;9.746;2023-03-01T17:19:36;7.10;54.70
16517;DHT22;8371;52.272;9.746;2023-03-01T17:22:03;7.00;54.70
16517;DHT22;8371;52.272;9.746;2023-03-01T17:24:33;6.90;54.80